Morgan Hill, CA

7:52 PM PDT on October 24, 2014 (GMT -0700)
Spring Hill near Cemetary | Change Station
CLOSE
Current Station
Personal Weather Station
Location: Morgan Hill, CA
Elevation: 374 ft
Nearby Weather Stations

Elev 374 ft 37.12 °N, 121.66 °W | Updated 1 minute ago

Partly Cloudy
Partly Cloudy
59.9 °F
Feels Like 59.9 °F
N
0.0
Wind Variable Wind from East
Gusts 0.0 mph

Today
High -- | Low -- °F
--% Chance of Precip.
Yesterday
High -- | Low -- °F
Precip. -- in
7:23 AM 6:17 PM
New Moon, 2% visible
Pressure 29.88 in
Visibility 10.0 miles
Clouds Few 1500 ft
Scattered Clouds 25000 ft
Dew Point 55 °F
Humidity 85%
Rainfall 0.00 in
Snow Depth Not available.
UV 0 out of 12
Pollen 2.60 out of 12
Ozone Good
PM2.5 Good
Flu Activity Sporadic
METAR KSJC 250153Z 18012G21KT 10SM FEW015 SCT250 18/11 A2988 RMK AO2 SLP118 T01780111

More Conditions Fewer Conditions

Pressure 29.88 in
Visibility 10.0 miles
Clouds Few 1500 ft
Scattered Clouds 25000 ft
Dew Point 55 °F
Humidity 85%
Rainfall 0.00 in
Snow Depth Not available.
UV 0 out of 12
Pollen 2.60 out of 12
Ozone Good
PM2.5 Good
Flu Activity Sporadic
METAR KSJC 250153Z 18012G21KT 10SM FEW015 SCT250 18/11 A2988 RMK AO2 SLP118 T01780111

More Conditions Fewer Conditions

10-Day Weather Forecast

Almanac

Astronomy

Oct. 24, 2014 Rise Set
Actual Time 7:23 AM PDT 6:17 PM PDT
Civil Twilight 6:56 AM PDT 6:44 PM PDT
Nautical Twilight 6:26 AM PDT 7:14 PM PDT
Astronomical Twilight 5:55 AM PDT 7:45 PM PDT
Moon 8:06 AM PDT (10/24) 7:02 PM PDT (10/24)
Length of Visible Light 11h 48m
Length of Day
10h 54m
Tomorrow will be 2m 12s shorter.
New Moon, 2% of the Moon is Illuminated
Today
New Moon
Oct 30
First Quarter
Nov 6
Full
Nov 14
Last Quarter
Nov 22
New

Today's Extremes

State Highs State Lows

Community

WunderPhotos

Upload Photos

1,764,760 photos uploaded!

Nearby

Air Quality

  Air Quality AQ Index Pollutant
Yesterday Good
OZONE
Yesterday Good
PM2.5
Current Good
PM2.5
Current Good
OZONE
Friday Good
NO2
Saturday Good
OZONE
Sunday Good
OZONE
Monday Good
PM2.5
Tuesday Moderate
PM2.5
Wednesday Moderate
PM2.5

Snow Depth

Station Depth Elevation
Leavitt Lake 1 in 9400 ft
Leavitt Meadows 1 in 7200 ft
Summit Meadow 1 in 9122 ft
Burnside Lake 0 in 8139 ft
Virginia Lakes Ridge 0 in 9200 ft

Earthquake Activity

City Distance Mag. Time & Date
Kettleman City, California 135 miles 2.5 9:08 AM PDT
2014-10-22
Minimum magnitude displayed is 2.5.

Coastal Water Temperatures

Place Temperature
Monterey, CA 64.0 °F
Redwood City, CA 66.9 °F

Nearby Weather Stations